DTTA

Tunis-Carthage

Airport
ICAO code
DTTA
Summary
ICAO Region
AFI
ICAO Territory
Location

Tunis, Tunisia,

Coordinates
36° 51' 4" N , 10° 13' 38" E
KCC
Metar
Observation
DTTA 270330Z 23007KT 9999 SCT026 SCT040 08/06 Q1008
Station
Tunis-Carthage
Date/Time
2023-01-27 03:30:00
Wind direction
230°
Wind speed
07 kts
Lowest cloud amount
scattered clouds
Temperature
8°C
Dew point
6°C
Humidity
87%
QNH
1008 hPa
Weather condition
n/a

Description

Tunis - Carthage International Airport is the international airport serving Tunis in Tunisia.

Climatology

(Köppen climate classification BSh)

Runways

Designator Length Width Surface Rops
11/29 2840 45 ASP Yes/Yes
1/19 3200 45 ASP Yes/Yes

Airport map

Aerial View

SKYbrary Partners:

Safety knowledge contributed by: